sensor_id;sensor_type;location;lat;lon;timestamp;pressure;altitude;pressure_sealevel;temperature
50206;BMP280;36098;48.390;10.856;2022-12-07T00:00:49;95979.63;;;22.74
50206;BMP280;36098;48.390;10.856;2022-12-07T00:03:14;95977.84;;;22.69
50206;BMP280;36098;48.390;10.856;2022-12-07T00:05:40;95978.09;;;22.68
50206;BMP280;36098;48.390;10.856;2022-12-07T00:08:05;95976.25;;;22.68
50206;BMP280;36098;48.390;10.856;2022-12-07T00:10:33;95971.25;;;22.67
50206;BMP280;36098;48.390;10.856;2022-12-07T00:12:58;95972.56;;;22.64
50206;BMP280;36098;48.390;10.856;2022-12-07T00:15:23;95971.28;;;22.62
50206;BMP280;36098;48.390;10.856;2022-12-07T00:17:49;95970.22;;;22.63
50206;BMP280;36098;48.390;10.856;2022-12-07T00:20:14;95967.59;;;22.63
50206;BMP280;36098;48.390;10.856;2022-12-07T00:22:39;95979.97;;;22.57
50206;BMP280;36098;48.390;10.856;2022-12-07T00:25:05;95975.75;;;22.56
50206;BMP280;36098;48.390;10.856;2022-12-07T00:27:30;95975.25;;;22.54
50206;BMP280;36098;48.390;10.856;2022-12-07T00:29:55;95967.59;;;22.53
50206;BMP280;36098;48.390;10.856;2022-12-07T00:32:21;95956.56;;;22.51
50206;BMP280;36098;48.390;10.856;2022-12-07T00:34:46;95968.94;;;22.50
50206;BMP280;36098;48.390;10.856;2022-12-07T00:37:11;95966.03;;;22.47
50206;BMP280;36098;48.390;10.856;2022-12-07T00:39:37;95970.00;;;22.44
50206;BMP280;36098;48.390;10.856;2022-12-07T00:42:02;95969.22;;;22.44
50206;BMP280;36098;48.390;10.856;2022-12-07T00:44:28;95971.03;;;22.43
50206;BMP280;36098;48.390;10.856;2022-12-07T00:46:53;95967.91;;;22.41
50206;BMP280;36098;48.390;10.856;2022-12-07T00:49:19;95964.22;;;22.42
50206;BMP280;36098;48.390;10.856;2022-12-07T00:51:44;95966.31;;;22.40
50206;BMP280;36098;48.390;10.856;2022-12-07T00:54:10;95965.56;;;22.40
50206;BMP280;36098;48.390;10.856;2022-12-07T00:56:35;95960.75;;;22.37
50206;BMP280;36098;48.390;10.856;2022-12-07T00:59:02;95969.72;;;22.36
50206;BMP280;36098;48.390;10.856;2022-12-07T01:01:31;95966.84;;;22.32
50206;BMP280;36098;48.390;10.856;2022-12-07T01:03:57;95963.97;;;22.29
50206;BMP280;36098;48.390;10.856;2022-12-07T01:06:23;95960.81;;;22.27
50206;BMP280;36098;48.390;10.856;2022-12-07T01:08:49;95965.00;;;22.28
50206;BMP280;36098;48.390;10.856;2022-12-07T01:11:16;95963.16;;;22.28
50206;BMP280;36098;48.390;10.856;2022-12-07T01:13:42;95967.13;;;22.26
50206;BMP280;36098;48.390;10.856;2022-12-07T01:16:07;95961.34;;;22.24
50206;BMP280;36098;48.390;10.856;2022-12-07T01:18:35;95966.59;;;22.24
50206;BMP280;36098;48.390;10.856;2022-12-07T01:21:08;95967.66;;;22.18
50206;BMP280;36098;48.390;10.856;2022-12-07T01:23:35;95969.22;;;22.19
50206;BMP280;36098;48.390;10.856;2022-12-07T01:26:03;95966.88;;;22.17
50206;BMP280;36098;48.390;10.856;2022-12-07T01:28:28;95965.03;;;22.13
50206;BMP280;36098;48.390;10.856;2022-12-07T01:31:02;95970.28;;;22.13
50206;BMP280;36098;48.390;10.856;2022-12-07T01:33:31;95970.56;;;22.11
50206;BMP280;36098;48.390;10.856;2022-12-07T01:36:08;95972.41;;;22.06
50206;BMP280;36098;48.390;10.856;2022-12-07T01:38:33;95973.47;;;22.05
50206;BMP280;36098;48.390;10.856;2022-12-07T01:41:00;95966.13;;;22.02
50206;BMP280;36098;48.390;10.856;2022-12-07T01:43:28;95966.38;;;22.00
50206;BMP280;36098;48.390;10.856;2022-12-07T01:45:54;95980.31;;;22.01
50206;BMP280;36098;48.390;10.856;2022-12-07T01:48:24;95968.47;;;21.93
50206;BMP280;36098;48.390;10.856;2022-12-07T01:50:51;95965.06;;;21.93
50206;BMP280;36098;48.390;10.856;2022-12-07T01:53:18;95962.94;;;21.95
50206;BMP280;36098;48.390;10.856;2022-12-07T01:55:46;95955.84;;;21.95
50206;BMP280;36098;48.390;10.856;2022-12-07T01:58:13;95957.16;;;21.98
50206;BMP280;36098;48.390;10.856;2022-12-07T02:00:40;95965.84;;;21.93
50206;BMP280;36098;48.390;10.856;2022-12-07T02:03:21;95959.78;;;21.93
50206;BMP280;36098;48.390;10.856;2022-12-07T02:05:48;95956.41;;;21.92
50206;BMP280;36098;48.390;10.856;2022-12-07T02:08:14;95960.84;;;21.92
50206;BMP280;36098;48.390;10.856;2022-12-07T02:10:39;95965.06;;;21.88
50206;BMP280;36098;48.390;10.856;2022-12-07T02:21:13;95958.75;;;21.79
50206;BMP280;36098;48.390;10.856;2022-12-07T02:26:44;95956.09;;;21.79
50206;BMP280;36098;48.390;10.856;2022-12-07T02:29:25;95957.44;;;21.81
50206;BMP280;36098;48.390;10.856;2022-12-07T02:34:45;95956.66;;;21.76
50206;BMP280;36098;48.390;10.856;2022-12-07T02:37:25;95961.66;;;21.72
50206;BMP280;36098;48.390;10.856;2022-12-07T02:39:59;95959.53;;;21.69
50206;BMP280;36098;48.390;10.856;2022-12-07T02:42:34;95950.34;;;21.67
50206;BMP280;36098;48.390;10.856;2022-12-07T02:45:02;95956.13;;;21.74
50206;BMP280;36098;48.390;10.856;2022-12-07T02:47:29;95956.13;;;21.69
50206;BMP280;36098;48.390;10.856;2022-12-07T02:49:55;95960.84;;;21.67
50206;BMP280;36098;48.390;10.856;2022-12-07T02:52:20;95947.19;;;21.70
50206;BMP280;36098;48.390;10.856;2022-12-07T02:54:45;95944.56;;;21.65
50206;BMP280;36098;48.390;10.856;2022-12-07T03:00:04;95947.44;;;21.68
50206;BMP280;36098;48.390;10.856;2022-12-07T03:02:38;95945.09;;;21.67
50206;BMP280;36098;48.390;10.856;2022-12-07T03:08:04;95949.31;;;21.63
50206;BMP280;36098;48.390;10.856;2022-12-07T03:10:44;95950.34;;;21.67
50206;BMP280;36098;48.390;10.856;2022-12-07T03:16:11;95945.09;;;21.62
50206;BMP280;36098;48.390;10.856;2022-12-07T03:19:25;95940.84;;;21.56
50206;BMP280;36098;48.390;10.856;2022-12-07T03:21:39;95941.63;;;21.61
50206;BMP280;36098;48.390;10.856;2022-12-07T03:24:13;95938.22;;;21.56
50206;BMP280;36098;48.390;10.856;2022-12-07T03:26:44;95946.09;;;21.56
50206;BMP280;36098;48.390;10.856;2022-12-07T03:29:16;95942.16;;;21.48
50206;BMP280;36098;48.390;10.856;2022-12-07T03:31:46;95946.34;;;21.49
50206;BMP280;36098;48.390;10.856;2022-12-07T03:34:39;95940.84;;;21.51
50206;BMP280;36098;48.390;10.856;2022-12-07T03:37:12;95944.00;;;21.48
50206;BMP280;36098;48.390;10.856;2022-12-07T03:39:46;95939.56;;;21.53
50206;BMP280;36098;48.390;10.856;2022-12-07T03:42:15;95947.16;;;21.50
50206;BMP280;36098;48.390;10.856;2022-12-07T03:44:41;95942.44;;;21.47
50206;BMP280;36098;48.390;10.856;2022-12-07T03:47:18;95942.41;;;21.52
50206;BMP280;36098;48.390;10.856;2022-12-07T03:49:51;95940.06;;;21.50
50206;BMP280;36098;48.390;10.856;2022-12-07T03:52:30;95942.41;;;21.52
50206;BMP280;36098;48.390;10.856;2022-12-07T03:55:30;95944.78;;;21.48
50206;BMP280;36098;48.390;10.856;2022-12-07T03:57:51;95947.69;;;21.42
50206;BMP280;36098;48.390;10.856;2022-12-07T04:00:18;95959.50;;;21.39
50206;BMP280;36098;48.390;10.856;2022-12-07T04:02:44;95958.19;;;21.42
50206;BMP280;36098;48.390;10.856;2022-12-07T04:05:09;95953.47;;;21.44
50206;BMP280;36098;48.390;10.856;2022-12-07T04:07:35;95954.50;;;21.43
50206;BMP280;36098;48.390;10.856;2022-12-07T04:10:00;95950.28;;;21.37
50206;BMP280;36098;48.390;10.856;2022-12-07T04:12:25;95942.94;;;21.34
50206;BMP280;36098;48.390;10.856;2022-12-07T04:14:51;95947.13;;;21.30
50206;BMP280;36098;48.390;10.856;2022-12-07T04:17:16;95950.53;;;21.31
50206;BMP280;36098;48.390;10.856;2022-12-07T04:19:41;95940.81;;;21.31
50206;BMP280;36098;48.390;10.856;2022-12-07T04:22:07;95935.84;;;21.35
50206;BMP280;36098;48.390;10.856;2022-12-07T04:24:32;95943.22;;;21.33
50206;BMP280;36098;48.390;10.856;2022-12-07T04:26:58;95946.88;;;21.32
50206;BMP280;36098;48.390;10.856;2022-12-07T04:29:24;95941.34;;;21.28
50206;BMP280;36098;48.390;10.856;2022-12-07T04:31:49;95941.06;;;21.30
50206;BMP280;36098;48.390;10.856;2022-12-07T04:34:15;95947.38;;;21.29
50206;BMP280;36098;48.390;10.856;2022-12-07T04:36:41;95945.03;;;21.27
50206;BMP280;36098;48.390;10.856;2022-12-07T04:39:08;95945.56;;;21.29
50206;BMP280;36098;48.390;10.856;2022-12-07T04:41:33;95937.16;;;21.32
50206;BMP280;36098;48.390;10.856;2022-12-07T04:44:01;95942.94;;;21.24
50206;BMP280;36098;48.390;10.856;2022-12-07T04:46:28;95939.50;;;21.24
50206;BMP280;36098;48.390;10.856;2022-12-07T04:48:54;95938.44;;;21.25
50206;BMP280;36098;48.390;10.856;2022-12-07T04:51:25;95941.34;;;21.23
50206;BMP280;36098;48.390;10.856;2022-12-07T04:53:50;95935.56;;;21.21
50206;BMP280;36098;48.390;10.856;2022-12-07T04:56:16;95940.56;;;21.18
50206;BMP280;36098;48.390;10.856;2022-12-07T04:58:43;95944.47;;;21.20
50206;BMP280;36098;48.390;10.856;2022-12-07T05:01:10;95944.47;;;21.20
50206;BMP280;36098;48.390;10.856;2022-12-07T05:03:36;95940.53;;;21.13
50206;BMP280;36098;48.390;10.856;2022-12-07T05:06:01;95941.31;;;21.18
50206;BMP280;36098;48.390;10.856;2022-12-07T05:08:26;95938.97;;;21.12
50206;BMP280;36098;48.390;10.856;2022-12-07T05:10:52;95942.84;;;20.99
50206;BMP280;36098;48.390;10.856;2022-12-07T05:13:17;95936.78;;;20.89
50206;BMP280;36098;48.390;10.856;2022-12-07T05:15:42;95931.28;;;20.90
50206;BMP280;36098;48.390;10.856;2022-12-07T05:18:09;95928.69;;;21.00
50206;BMP280;36098;48.390;10.856;2022-12-07T05:20:34;95931.34;;;21.10
50206;BMP280;36098;48.390;10.856;2022-12-07T05:23:00;95932.94;;;21.26
50206;BMP280;36098;48.390;10.856;2022-12-07T05:25:25;95928.75;;;21.40
50206;BMP280;36098;48.390;10.856;2022-12-07T05:27:50;95918.25;;;21.55
50206;BMP280;36098;48.390;10.856;2022-12-07T05:30:16;95908.56;;;21.70
50206;BMP280;36098;48.390;10.856;2022-12-07T05:32:41;95914.31;;;21.87
50206;BMP280;36098;48.390;10.856;2022-12-07T05:35:07;95921.41;;;22.02
50206;BMP280;36098;48.390;10.856;2022-12-07T05:37:32;95921.91;;;22.14
50206;BMP280;36098;48.390;10.856;2022-12-07T05:39:58;95926.88;;;22.25
50206;BMP280;36098;48.390;10.856;2022-12-07T05:42:24;95922.91;;;22.33
50206;BMP280;36098;48.390;10.856;2022-12-07T05:44:49;95914.50;;;22.41
50206;BMP280;36098;48.390;10.856;2022-12-07T05:47:15;95923.94;;;22.47
50206;BMP280;36098;48.390;10.856;2022-12-07T05:49:40;95916.03;;;22.52
50206;BMP280;36098;48.390;10.856;2022-12-07T05:52:06;95925.47;;;22.58
50206;BMP280;36098;48.390;10.856;2022-12-07T05:54:32;95920.22;;;22.63
50206;BMP280;36098;48.390;10.856;2022-12-07T05:56:57;95927.81;;;22.69
50206;BMP280;36098;48.390;10.856;2022-12-07T05:59:23;95916.97;;;22.76
50206;BMP280;36098;48.390;10.856;2022-12-07T06:02:04;95925.09;;;22.84
50206;BMP280;36098;48.390;10.856;2022-12-07T06:04:32;95935.09;;;22.92
50206;BMP280;36098;48.390;10.856;2022-12-07T06:06:58;95927.66;;;22.99
50206;BMP280;36098;48.390;10.856;2022-12-07T06:09:24;95926.84;;;23.04
50206;BMP280;36098;48.390;10.856;2022-12-07T06:11:50;95919.97;;;23.08
50206;BMP280;36098;48.390;10.856;2022-12-07T06:14:35;95919.44;;;23.11
50206;BMP280;36098;48.390;10.856;2022-12-07T06:17:00;95916.28;;;23.14
50206;BMP280;36098;48.390;10.856;2022-12-07T06:19:26;95920.44;;;23.25
50206;BMP280;36098;48.390;10.856;2022-12-07T06:21:51;95919.84;;;23.32
50206;BMP280;36098;48.390;10.856;2022-12-07T06:24:17;95922.97;;;23.39
50206;BMP280;36098;48.390;10.856;2022-12-07T06:26:42;95919.22;;;23.45
50206;BMP280;36098;48.390;10.856;2022-12-07T06:29:08;95922.84;;;23.54
50206;BMP280;36098;48.390;10.856;2022-12-07T06:31:35;95924.09;;;23.62
50206;BMP280;36098;48.390;10.856;2022-12-07T06:34:03;95920.13;;;23.64
50206;BMP280;36098;48.390;10.856;2022-12-07T06:36:29;95927.75;;;23.71
50206;BMP280;36098;48.390;10.856;2022-12-07T06:38:54;95930.59;;;23.74
50206;BMP280;36098;48.390;10.856;2022-12-07T06:41:20;95930.06;;;23.77
50206;BMP280;36098;48.390;10.856;2022-12-07T06:43:45;95928.97;;;23.83
50206;BMP280;36098;48.390;10.856;2022-12-07T06:46:10;95927.63;;;23.86
50206;BMP280;36098;48.390;10.856;2022-12-07T06:48:36;95924.66;;;23.92
50206;BMP280;36098;48.390;10.856;2022-12-07T06:51:01;95923.06;;;23.96
50206;BMP280;36098;48.390;10.856;2022-12-07T06:53:26;95929.34;;;24.00
50206;BMP280;36098;48.390;10.856;2022-12-07T06:55:52;95924.28;;;24.04
50206;BMP280;36098;48.390;10.856;2022-12-07T06:58:17;95921.38;;;24.05
50206;BMP280;36098;48.390;10.856;2022-12-07T07:00:43;95920.81;;;24.08
50206;BMP280;36098;48.390;10.856;2022-12-07T07:03:08;95917.91;;;24.10
50206;BMP280;36098;48.390;10.856;2022-12-07T07:05:34;95914.22;;;24.11
50206;BMP280;36098;48.390;10.856;2022-12-07T07:08:00;95923.69;;;24.12
50206;BMP280;36098;48.390;10.856;2022-12-07T07:10:25;95923.13;;;24.15
50206;BMP280;36098;48.390;10.856;2022-12-07T07:12:50;95919.69;;;24.14
50206;BMP280;36098;48.390;10.856;2022-12-07T07:15:16;95918.13;;;24.13
50206;BMP280;36098;48.390;10.856;2022-12-07T07:17:41;95919.69;;;24.14
50206;BMP280;36098;48.390;10.856;2022-12-07T07:20:06;95912.34;;;24.11
50206;BMP280;36098;48.390;10.856;2022-12-07T07:22:32;95911.84;;;24.09
50206;BMP280;36098;48.390;10.856;2022-12-07T07:24:57;95903.72;;;24.06
50206;BMP280;36098;48.390;10.856;2022-12-07T07:27:23;95912.72;;;24.00
50206;BMP280;36098;48.390;10.856;2022-12-07T07:29:48;95914.84;;;23.98
50206;BMP280;36098;48.390;10.856;2022-12-07T07:32:13;95916.75;;;23.92
50206;BMP280;36098;48.390;10.856;2022-12-07T07:34:39;95925.78;;;23.86
50206;BMP280;36098;48.390;10.856;2022-12-07T07:37:05;95925.00;;;23.81
50206;BMP280;36098;48.390;10.856;2022-12-07T07:39:30;95933.75;;;23.76
50206;BMP280;36098;48.390;10.856;2022-12-07T07:41:55;95936.19;;;23.68
50206;BMP280;36098;48.390;10.856;2022-12-07T07:44:20;95930.44;;;23.61
50206;BMP280;36098;48.390;10.856;2022-12-07T07:46:46;95931.25;;;23.56
50206;BMP280;36098;48.390;10.856;2022-12-07T07:49:11;95931.81;;;23.53
50206;BMP280;36098;48.390;10.856;2022-12-07T07:51:36;95939.00;;;23.48
50206;BMP280;36098;48.390;10.856;2022-12-07T07:54:02;95931.91;;;23.43
50206;BMP280;36098;48.390;10.856;2022-12-07T07:56:28;95932.81;;;23.62
50206;BMP280;36098;48.390;10.856;2022-12-07T07:58:53;95931.44;;;23.65
50206;BMP280;36098;48.390;10.856;2022-12-07T08:01:18;95929.16;;;23.53
50206;BMP280;36098;48.390;10.856;2022-12-07T08:03:46;95930.84;;;23.44
50206;BMP280;36098;48.390;10.856;2022-12-07T08:06:11;95934.53;;;23.43
50206;BMP280;36098;48.390;10.856;2022-12-07T08:08:36;95929.50;;;23.47
50206;BMP280;36098;48.390;10.856;2022-12-07T08:11:05;95932.09;;;23.52
50206;BMP280;36098;48.390;10.856;2022-12-07T08:13:31;95925.81;;;23.48
50206;BMP280;36098;48.390;10.856;2022-12-07T08:15:56;95930.03;;;23.49
50206;BMP280;36098;48.390;10.856;2022-12-07T08:18:21;95950.78;;;23.55
50206;BMP280;36098;48.390;10.856;2022-12-07T08:20:47;95962.56;;;23.63
50206;BMP280;36098;48.390;10.856;2022-12-07T08:23:12;95960.44;;;23.65
50206;BMP280;36098;48.390;10.856;2022-12-07T08:25:38;95957.09;;;23.54
50206;BMP280;36098;48.390;10.856;2022-12-07T08:28:03;95963.44;;;23.53
50206;BMP280;36098;48.390;10.856;2022-12-07T08:30:29;95964.50;;;23.52
50206;BMP280;36098;48.390;10.856;2022-12-07T08:32:55;95967.13;;;23.57
50206;BMP280;36098;48.390;10.856;2022-12-07T08:35:20;95962.88;;;23.56
50206;BMP280;36098;48.390;10.856;2022-12-07T08:37:46;95954.81;;;23.48
50206;BMP280;36098;48.390;10.856;2022-12-07T08:40:12;95946.19;;;23.37
50206;BMP280;36098;48.390;10.856;2022-12-07T08:42:50;95964.53;;;23.47
50206;BMP280;36098;48.390;10.856;2022-12-07T08:45:17;95955.63;;;23.43
50206;BMP280;36098;48.390;10.856;2022-12-07T08:47:53;95961.19;;;23.37
50206;BMP280;36098;48.390;10.856;2022-12-07T08:50:18;95959.34;;;23.37
50206;BMP280;36098;48.390;10.856;2022-12-07T08:52:51;95953.03;;;23.33
50206;BMP280;36098;48.390;10.856;2022-12-07T08:55:18;95965.78;;;23.17
50206;BMP280;36098;48.390;10.856;2022-12-07T08:57:43;95969.00;;;23.04
50206;BMP280;36098;48.390;10.856;2022-12-07T09:00:09;95970.59;;;23.00
50206;BMP280;36098;48.390;10.856;2022-12-07T09:02:35;95970.06;;;23.03
50206;BMP280;36098;48.390;10.856;2022-12-07T09:05:00;95977.91;;;23.08
50206;BMP280;36098;48.390;10.856;2022-12-07T09:07:26;95982.63;;;23.11
50206;BMP280;36098;48.390;10.856;2022-12-07T09:09:51;95992.94;;;23.12
50206;BMP280;36098;48.390;10.856;2022-12-07T09:12:17;95980.28;;;23.14
50206;BMP280;36098;48.390;10.856;2022-12-07T09:14:42;95980.28;;;23.14
50206;BMP280;36098;48.390;10.856;2022-12-07T09:17:09;95973.44;;;23.13
50206;BMP280;36098;48.390;10.856;2022-12-07T09:19:35;95970.81;;;23.13
50206;BMP280;36098;48.390;10.856;2022-12-07T09:22:01;95974.22;;;23.19
50206;BMP280;36098;48.390;10.856;2022-12-07T09:24:26;95975.53;;;23.16
50206;BMP280;36098;48.390;10.856;2022-12-07T09:26:52;95973.16;;;23.15
50206;BMP280;36098;48.390;10.856;2022-12-07T09:29:17;95973.44;;;23.13
50206;BMP280;36098;48.390;10.856;2022-12-07T09:31:42;95965.78;;;23.17
50206;BMP280;36098;48.390;10.856;2022-12-07T09:34:07;95982.00;;;23.38
50206;BMP280;36098;48.390;10.856;2022-12-07T09:36:33;95966.41;;;23.47
50206;BMP280;36098;48.390;10.856;2022-12-07T09:38:58;95961.66;;;23.44
50206;BMP280;36098;48.390;10.856;2022-12-07T09:41:25;95964.53;;;23.47
50206;BMP280;36098;48.390;10.856;2022-12-07T09:43:53;95960.63;;;23.40
50206;BMP280;36098;48.390;10.856;2022-12-07T09:46:20;95957.19;;;23.44
50206;BMP280;36098;48.390;10.856;2022-12-07T09:48:47;95952.63;;;23.55
50206;BMP280;36098;48.390;10.856;2022-12-07T09:51:20;95945.47;;;23.60
50206;BMP280;36098;48.390;10.856;2022-12-07T09:53:46;95946.41;;;23.74
50206;BMP280;36098;48.390;10.856;2022-12-07T09:56:14;95943.25;;;23.72
50206;BMP280;36098;48.390;10.856;2022-12-07T09:58:40;95940.34;;;23.74
50206;BMP280;36098;48.390;10.856;2022-12-07T10:01:13;95940.88;;;23.76
50206;BMP280;36098;48.390;10.856;2022-12-07T10:03:43;95930.56;;;23.79
50206;BMP280;36098;48.390;10.856;2022-12-07T10:06:10;95936.91;;;23.78
50206;BMP280;36098;48.390;10.856;2022-12-07T10:08:37;95933.94;;;23.85
50206;BMP280;36098;48.390;10.856;2022-12-07T10:11:03;95927.34;;;23.87
50206;BMP280;36098;48.390;10.856;2022-12-07T10:13:39;95929.47;;;23.85
50206;BMP280;36098;48.390;10.856;2022-12-07T10:16:05;95926.88;;;23.80
50206;BMP280;36098;48.390;10.856;2022-12-07T10:23:35;95937.84;;;23.59
50206;BMP280;36098;48.390;10.856;2022-12-07T10:26:20;95932.09;;;23.52
50206;BMP280;36098;48.390;10.856;2022-12-07T10:28:46;95925.97;;;23.56
50206;BMP280;36098;48.390;10.856;2022-12-07T10:31:20;95942.34;;;23.58
50206;BMP280;36098;48.390;10.856;2022-12-07T10:33:58;95929.81;;;23.40
50206;BMP280;36098;48.390;10.856;2022-12-07T10:36:41;95930.88;;;23.34
50206;BMP280;36098;48.390;10.856;2022-12-07T10:39:15;95920.28;;;23.44
50206;BMP280;36098;48.390;10.856;2022-12-07T10:44:23;95917.63;;;23.49
50206;BMP280;36098;48.390;10.856;2022-12-07T10:49:50;95915.72;;;23.55
50206;BMP280;36098;48.390;10.856;2022-12-07T10:52:40;95909.56;;;23.36
50206;BMP280;36098;48.390;10.856;2022-12-07T10:55:23;95918.91;;;23.52
50206;BMP280;36098;48.390;10.856;2022-12-07T11:00:25;95907.63;;;23.46
50206;BMP280;36098;48.390;10.856;2022-12-07T11:03:09;95919.28;;;23.40
50206;BMP280;36098;48.390;10.856;2022-12-07T11:05:54;95909.72;;;23.49
50206;BMP280;36098;48.390;10.856;2022-12-07T11:08:48;95909.94;;;23.53
50206;BMP280;36098;48.390;10.856;2022-12-07T11:11:29;95905.50;;;23.48
50206;BMP280;36098;48.390;10.856;2022-12-07T11:19:24;95894.00;;;23.34
50206;BMP280;36098;48.390;10.856;2022-12-07T11:21:58;95891.81;;;23.08
50206;BMP280;36098;48.390;10.856;2022-12-07T11:24:40;95893.22;;;22.91
50206;BMP280;36098;48.390;10.856;2022-12-07T11:27:14;95884.53;;;22.85
50206;BMP280;36098;48.390;10.856;2022-12-07T11:30:10;95885.59;;;22.89
50206;BMP280;36098;48.390;10.856;2022-12-07T11:38:03;95873.72;;;22.92
50206;BMP280;36098;48.390;10.856;2022-12-07T11:40:36;95875.03;;;22.94
50206;BMP280;36098;48.390;10.856;2022-12-07T11:43:25;95875.81;;;22.95
50206;BMP280;36098;48.390;10.856;2022-12-07T11:46:02;95875.28;;;22.93
50206;BMP280;36098;48.390;10.856;2022-12-07T11:48:33;95878.22;;;22.91
50206;BMP280;36098;48.390;10.856;2022-12-07T11:51:02;95870.31;;;22.91
50206;BMP280;36098;48.390;10.856;2022-12-07T11:53:49;95867.38;;;22.98
50206;BMP280;36098;48.390;10.856;2022-12-07T11:56:16;95861.03;;;23.04
50206;BMP280;36098;48.390;10.856;2022-12-07T12:01:45;95860.00;;;23.00
50206;BMP280;36098;48.390;10.856;2022-12-07T12:04:53;95854.13;;;23.13
50206;BMP280;36098;48.390;10.856;2022-12-07T12:07:23;95853.50;;;23.26
50206;BMP280;36098;48.390;10.856;2022-12-07T12:09:53;95857.47;;;23.28
50206;BMP280;36098;48.390;10.856;2022-12-07T12:15:48;95847.97;;;23.55
50206;BMP280;36098;48.390;10.856;2022-12-07T12:18:43;95848.91;;;23.69
50206;BMP280;36098;48.390;10.856;2022-12-07T12:21:16;95855.00;;;23.70
50206;BMP280;36098;48.390;10.856;2022-12-07T12:23:50;95840.94;;;23.74
50206;BMP280;36098;48.390;10.856;2022-12-07T12:26:21;95839.38;;;23.73
50206;BMP280;36098;48.390;10.856;2022-12-07T12:33:50;95839.31;;;23.22
50206;BMP280;36098;48.390;10.856;2022-12-07T12:47:04;95839.91;;;23.14
50206;BMP280;36098;48.390;10.856;2022-12-07T12:49:37;95836.69;;;23.17
50206;BMP280;36098;48.390;10.856;2022-12-07T12:55:01;95837.78;;;23.16
50206;BMP280;36098;48.390;10.856;2022-12-07T12:57:30;95829.34;;;23.14
50206;BMP280;36098;48.390;10.856;2022-12-07T13:02:47;95820.41;;;23.15
50206;BMP280;36098;48.390;10.856;2022-12-07T13:15:49;95806.41;;;23.19
50206;BMP280;36098;48.390;10.856;2022-12-07T13:23:31;95805.41;;;23.43
50206;BMP280;36098;48.390;10.856;2022-12-07T13:29:16;95797.63;;;23.28
50206;BMP280;36098;48.390;10.856;2022-12-07T13:31:51;95800.22;;;23.33
50206;BMP280;36098;48.390;10.856;2022-12-07T13:36:54;95790.19;;;23.35
50206;BMP280;36098;48.390;10.856;2022-12-07T13:39:22;95802.28;;;23.36
50206;BMP280;36098;48.390;10.856;2022-12-07T13:41:53;95799.91;;;23.40
50206;BMP280;36098;48.390;10.856;2022-12-07T13:44:20;95794.03;;;23.48
50206;BMP280;36098;48.390;10.856;2022-12-07T13:47:09;95792.31;;;23.33
50206;BMP280;36098;48.390;10.856;2022-12-07T13:49:46;95783.22;;;23.49
50206;BMP280;36098;48.390;10.856;2022-12-07T13:52:19;95784.03;;;23.45
50206;BMP280;36098;48.390;10.856;2022-12-07T13:55:13;95788.28;;;23.41
50206;BMP280;36098;48.390;10.856;2022-12-07T13:57:39;95785.06;;;23.49
50206;BMP280;36098;48.390;10.856;2022-12-07T14:00:15;95798.19;;;23.54
50206;BMP280;36098;48.390;10.856;2022-12-07T14:03:01;95796.94;;;23.46
50206;BMP280;36098;48.390;10.856;2022-12-07T14:05:32;95784.69;;;23.60
50206;BMP280;36098;48.390;10.856;2022-12-07T14:13:34;95780.50;;;23.59
50206;BMP280;36098;48.390;10.856;2022-12-07T14:16:04;95789.78;;;23.52
50206;BMP280;36098;48.390;10.856;2022-12-07T14:18:39;95792.09;;;23.30
50206;BMP280;36098;48.390;10.856;2022-12-07T14:21:19;95785.09;;;23.16
50206;BMP280;36098;48.390;10.856;2022-12-07T14:24:02;95788.00;;;23.14
50206;BMP280;36098;48.390;10.856;2022-12-07T14:26:28;95790.34;;;23.21
50206;BMP280;36098;48.390;10.856;2022-12-07T14:29:46;95792.13;;;23.25
50206;BMP280;36098;48.390;10.856;2022-12-07T14:32:18;95789.72;;;23.28
50206;BMP280;36098;48.390;10.856;2022-12-07T14:34:58;95786.84;;;23.25
50206;BMP280;36098;48.390;10.856;2022-12-07T14:37:24;95783.22;;;23.21
50206;BMP280;36098;48.390;10.856;2022-12-07T14:39:49;95784.28;;;23.20
50206;BMP280;36098;48.390;10.856;2022-12-07T14:42:14;95779.28;;;23.19
50206;BMP280;36098;48.390;10.856;2022-12-07T14:44:40;95782.94;;;23.23
50206;BMP280;36098;48.390;10.856;2022-12-07T14:47:07;95788.63;;;23.34
50206;BMP280;36098;48.390;10.856;2022-12-07T14:49:32;95783.84;;;23.36
50206;BMP280;36098;48.390;10.856;2022-12-07T14:51:58;95770.16;;;23.34
50206;BMP280;36098;48.390;10.856;2022-12-07T14:54:26;95778.25;;;23.43
50206;BMP280;36098;48.390;10.856;2022-12-07T14:56:54;95775.88;;;23.46
50206;BMP280;36098;48.390;10.856;2022-12-07T14:59:19;95774.16;;;23.60
50206;BMP280;36098;48.390;10.856;2022-12-07T15:01:45;95783.25;;;23.73
50206;BMP280;36098;48.390;10.856;2022-12-07T15:04:10;95773.94;;;23.80
50206;BMP280;36098;48.390;10.856;2022-12-07T15:06:35;95776.03;;;23.83
50206;BMP280;36098;48.390;10.856;2022-12-07T15:09:01;95775.47;;;23.86
50206;BMP280;36098;48.390;10.856;2022-12-07T15:11:27;95781.25;;;23.88
50206;BMP280;36098;48.390;10.856;2022-12-07T15:13:52;95775.59;;;23.71
50206;BMP280;36098;48.390;10.856;2022-12-07T15:16:33;95770.97;;;23.63
50206;BMP280;36098;48.390;10.856;2022-12-07T15:18:58;95768.38;;;23.58
50206;BMP280;36098;48.390;10.856;2022-12-07T15:21:24;95774.75;;;23.52
50206;BMP280;36098;48.390;10.856;2022-12-07T15:23:49;95779.63;;;23.40
50206;BMP280;36098;48.390;10.856;2022-12-07T15:26:14;95782.53;;;23.39
50206;BMP280;36098;48.390;10.856;2022-12-07T15:28:41;95777.13;;;23.26
50206;BMP280;36098;48.390;10.856;2022-12-07T15:31:17;95766.66;;;23.16
50206;BMP280;36098;48.390;10.856;2022-12-07T15:33:43;95777.16;;;23.21
50206;BMP280;36098;48.390;10.856;2022-12-07T15:36:18;95776.28;;;23.30
50206;BMP280;36098;48.390;10.856;2022-12-07T15:38:44;95777.53;;;23.37
50206;BMP280;36098;48.390;10.856;2022-12-07T15:41:09;95774.34;;;23.40
50206;BMP280;36098;48.390;10.856;2022-12-07T15:43:36;95773.28;;;23.41
50206;BMP280;36098;48.390;10.856;2022-12-07T15:46:19;95775.91;;;23.41
50206;BMP280;36098;48.390;10.856;2022-12-07T15:48:45;95768.03;;;23.41